createdAt,value
2022-09-04T00:00:14.626Z,38.18
2022-09-04T00:02:44.089Z,38.38
2022-09-04T00:05:25.614Z,38.36
2022-09-04T00:08:11.752Z,38.28
2022-09-04T00:10:48.812Z,38.36
2022-09-04T00:13:19.423Z,38.45
2022-09-04T00:15:53.974Z,38.31
2022-09-04T00:18:35.548Z,38.23
2022-09-04T00:21:08.108Z,38.62
2022-09-04T00:23:45.028Z,38.46
2022-09-04T00:26:36.611Z,38.51
2022-09-04T00:29:07.219Z,38.55
2022-09-04T00:31:39.118Z,38.50
2022-09-04T00:34:27.849Z,38.53
2022-09-04T00:36:55.407Z,38.64
2022-09-04T00:39:31.276Z,38.67
2022-09-04T00:42:27.047Z,38.76
2022-09-04T00:45:14.637Z,38.69
2022-09-04T00:48:05.231Z,38.62
2022-09-04T00:50:40.973Z,38.63
2022-09-04T00:53:18.472Z,38.81
2022-09-04T00:55:50.718Z,38.90
2022-09-04T00:58:27.280Z,39.00
2022-09-04T01:00:54.867Z,38.92
2022-09-04T01:04:03.659Z,38.86
2022-09-04T01:06:42.531Z,38.99
2022-09-04T01:09:22.457Z,38.83
2022-09-04T01:12:07.741Z,39.09
2022-09-04T01:14:40.184Z,39.12
2022-09-04T01:17:14.764Z,38.99
2022-09-04T01:19:53.218Z,39.07
2022-09-04T01:22:41.172Z,39.20
2022-09-04T01:25:33.748Z,39.22
2022-09-04T01:28:15.331Z,39.33
2022-09-04T01:30:54.174Z,39.20
2022-09-04T01:33:44.887Z,39.41
2022-09-04T01:36:18.740Z,39.29
2022-09-04T01:38:53.639Z,39.26
2022-09-04T01:41:27.597Z,39.49
2022-09-04T01:43:54.271Z,39.42
2022-09-04T01:46:40.222Z,39.44
2022-09-04T01:49:27.047Z,39.32
2022-09-04T01:52:09.201Z,39.54
2022-09-04T01:54:38.789Z,39.54
2022-09-04T01:57:34.437Z,39.36
2022-09-04T02:00:23.133Z,39.58
2022-09-04T02:03:29.232Z,39.57
2022-09-04T02:06:13.095Z,39.35
2022-09-04T02:08:51.491Z,39.52
2022-09-04T02:11:18.753Z,39.66
2022-09-04T02:14:08.634Z,39.63
2022-09-04T02:16:46.560Z,39.67
2022-09-04T02:19:31.967Z,39.82
2022-09-04T02:22:29.463Z,39.73
2022-09-04T02:25:15.195Z,39.67
2022-09-04T02:27:58.446Z,39.79
2022-09-04T02:30:24.953Z,39.71
2022-09-04T02:33:15.167Z,39.59
2022-09-04T02:35:56.783Z,39.68
2022-09-04T02:38:45.319Z,39.79
2022-09-04T02:41:37.223Z,39.56
2022-09-04T02:44:31.521Z,39.80
2022-09-04T02:47:13.649Z,39.60
2022-09-04T02:49:48.424Z,39.78
2022-09-04T02:52:22.019Z,39.65
2022-09-04T02:55:12.529Z,39.67
2022-09-04T02:58:11.359Z,39.80
2022-09-04T03:00:55.179Z,39.84
2022-09-04T03:03:27.572Z,39.77
2022-09-04T03:06:10.350Z,39.88
2022-09-04T03:08:39.809Z,39.57
2022-09-04T03:11:29.764Z,39.81
2022-09-04T03:14:24.576Z,40.10
2022-09-04T03:17:03.316Z,39.83
2022-09-04T03:19:36.375Z,39.86
2022-09-04T03:22:12.779Z,39.79
2022-09-04T03:24:45.906Z,39.82
2022-09-04T03:27:13.663Z,39.86
2022-09-04T03:29:51.318Z,39.92
2022-09-04T03:32:41.511Z,40.11
2022-09-04T03:35:26.189Z,39.95
2022-09-04T03:38:16.909Z,40.00
2022-09-04T03:41:13.460Z,40.05
2022-09-04T03:44:12.465Z,40.06
2022-09-04T03:46:48.061Z,39.90
2022-09-04T03:49:34.820Z,40.06
2022-09-04T03:52:21.443Z,39.80
2022-09-04T03:55:27.907Z,40.02
2022-09-04T03:58:06.379Z,40.06
2022-09-04T04:00:45.901Z,40.02
2022-09-04T04:03:34.755Z,40.01
2022-09-04T04:06:16.702Z,39.99
2022-09-04T04:08:58.742Z,40.03
2022-09-04T04:11:57.679Z,39.98
2022-09-04T04:14:57.195Z,40.04
2022-09-04T04:17:27.868Z,40.06
2022-09-04T04:20:06.599Z,40.26
2022-09-04T04:22:46.704Z,40.05
2022-09-04T04:25:21.381Z,40.14
2022-09-04T04:27:52.934Z,40.10
2022-09-04T04:30:20.596Z,40.15
2022-09-04T04:33:12.168Z,40.30
2022-09-04T04:36:01.325Z,40.25
2022-09-04T04:38:36.785Z,40.24
2022-09-04T04:41:31.240Z,40.27
2022-09-04T04:44:10.767Z,40.21
2022-09-04T04:46:56.456Z,40.25
2022-09-04T04:49:50.595Z,40.18
2022-09-04T04:52:31.892Z,40.13
2022-09-04T04:55:16.343Z,40.23
2022-09-04T04:57:46.180Z,40.24
2022-09-04T05:00:26.797Z,40.23
2022-09-04T05:03:06.544Z,40.31
2022-09-04T05:05:53.926Z,40.13
2022-09-04T05:08:35.563Z,40.39
2022-09-04T05:11:19.812Z,40.11
2022-09-04T05:14:04.958Z,40.28
2022-09-04T05:17:09.123Z,40.49
2022-09-04T05:19:45.539Z,40.22
2022-09-04T05:22:24.426Z,40.31
2022-09-04T05:25:24.168Z,40.31
2022-09-04T05:28:04.367Z,40.26
2022-09-04T05:31:09.425Z,40.18
2022-09-04T05:33:51.708Z,40.45
2022-09-04T05:36:32.738Z,40.33
2022-09-04T05:39:21.106Z,40.12
2022-09-04T05:41:55.744Z,40.06
2022-09-04T05:44:46.064Z,40.17
2022-09-04T05:47:30.762Z,40.06
2022-09-04T05:50:22.300Z,39.89
2022-09-04T05:53:22.235Z,40.15
2022-09-04T05:56:10.528Z,39.93
2022-09-04T05:58:47.910Z,39.99
2022-09-04T06:01:47.525Z,39.78
2022-09-04T06:04:22.274Z,39.64
2022-09-04T06:06:59.227Z,39.88
2022-09-04T06:09:50.584Z,39.78
2022-09-04T06:12:20.242Z,39.76
2022-09-04T06:14:57.353Z,39.46
2022-09-04T06:17:40.140Z,39.77
2022-09-04T06:20:40.656Z,40.13
2022-09-04T06:23:25.334Z,40.43
2022-09-04T06:26:18.640Z,40.52
2022-09-04T06:29:14.797Z,40.63
2022-09-04T06:31:57.352Z,40.38
2022-09-04T06:34:36.664Z,40.48
2022-09-04T06:37:38.169Z,40.25
2022-09-04T06:40:16.643Z,39.93
2022-09-04T06:42:50.237Z,40.19
2022-09-04T06:45:30.544Z,40.70
2022-09-04T06:48:09.132Z,40.57
2022-09-04T06:50:53.974Z,40.68
2022-09-04T06:53:31.811Z,40.50
2022-09-04T06:56:33.151Z,40.37
2022-09-04T06:59:08.656Z,40.70
2022-09-04T07:01:53.642Z,40.61
2022-09-04T07:04:44.899Z,40.96
2022-09-04T07:07:32.755Z,40.96
2022-09-04T07:10:05.095Z,41.16
2022-09-04T07:12:52.802Z,40.82
2022-09-04T07:15:57.314Z,41.19
2022-09-04T07:18:51.607Z,41.25
2022-09-04T07:21:42.950Z,41.18
2022-09-04T07:24:27.630Z,41.16
2022-09-04T07:27:07.812Z,41.19
2022-09-04T07:29:40.074Z,41.83
2022-09-04T07:32:20.304Z,41.64
2022-09-04T07:35:10.943Z,41.83
2022-09-04T07:37:58.455Z,41.83
2022-09-04T07:40:28.001Z,41.80
2022-09-04T07:43:09.901Z,41.83
2022-09-04T07:45:47.341Z,41.56
2022-09-04T07:48:31.983Z,41.90
2022-09-04T07:51:04.936Z,41.72
2022-09-04T07:53:44.758Z,41.64
2022-09-04T07:56:35.291Z,42.14
2022-09-04T07:59:26.412Z,42.64
2022-09-04T08:02:20.707Z,42.18
2022-09-04T08:05:06.804Z,42.70
2022-09-04T08:07:33.155Z,42.40
2022-09-04T08:10:20.287Z,42.28
2022-09-04T08:13:12.202Z,42.17
2022-09-04T08:15:43.613Z,41.61
2022-09-04T08:18:22.103Z,41.73
2022-09-04T08:21:16.220Z,42.05
2022-09-04T08:24:16.362Z,42.14
2022-09-04T08:27:16.815Z,42.33
2022-09-04T08:30:10.971Z,42.41
2022-09-04T08:32:56.007Z,42.25
2022-09-04T08:35:31.638Z,42.07
2022-09-04T08:38:15.013Z,42.09
2022-09-04T08:41:18.439Z,42.03
2022-09-04T08:44:16.625Z,42.15
2022-09-04T08:46:52.904Z,42.06
2022-09-04T08:50:04.257Z,41.80
2022-09-04T08:52:52.703Z,42.11
2022-09-04T08:55:49.953Z,42.05
2022-09-04T08:58:27.498Z,42.01
2022-09-04T09:01:15.787Z,42.08
2022-09-04T09:04:08.670Z,42.21
2022-09-04T09:06:48.706Z,42.33
2022-09-04T09:09:20.500Z,42.36
2022-09-04T09:12:09.362Z,42.29
2022-09-04T09:14:59.015Z,42.31
2022-09-04T09:17:39.097Z,42.43
2022-09-04T09:20:20.069Z,42.64
2022-09-04T09:23:12.031Z,42.71
2022-09-04T09:26:06.212Z,42.78
2022-09-04T09:29:01.955Z,43.11
2022-09-04T09:32:03.809Z,42.88
2022-09-04T09:34:58.920Z,42.86
2022-09-04T09:37:37.359Z,43.09
2022-09-04T09:40:29.412Z,43.00
2022-09-04T09:43:17.619Z,43.10
2022-09-04T09:45:58.554Z,43.15
2022-09-04T09:48:53.171Z,42.96
2022-09-04T09:51:57.304Z,43.19
2022-09-04T09:54:29.670Z,43.35
2022-09-04T09:57:16.349Z,43.39
2022-09-04T10:00:06.766Z,43.55
2022-09-04T10:03:08.655Z,43.70
2022-09-04T10:05:39.940Z,43.85
2022-09-04T10:08:26.222Z,44.06
2022-09-04T10:11:14.894Z,43.93
2022-09-04T10:13:47.603Z,43.80
2022-09-04T10:16:52.512Z,44.05
2022-09-04T10:19:22.049Z,44.03
2022-09-04T10:22:13.919Z,43.93
2022-09-04T10:25:07.739Z,44.29
2022-09-04T10:28:04.791Z,44.17
2022-09-04T10:31:13.027Z,44.67
2022-09-04T10:34:07.503Z,45.30
2022-09-04T10:37:07.843Z,44.47
2022-09-04T10:40:27.408Z,44.77
2022-09-04T10:43:30.497Z,45.83
2022-09-04T10:46:13.724Z,45.75
2022-09-04T10:49:30.443Z,45.94
2022-09-04T10:52:06.432Z,45.27
2022-09-04T10:54:35.819Z,46.05
2022-09-04T10:57:09.748Z,45.96
2022-09-04T10:59:58.941Z,46.32
2022-09-04T11:02:35.804Z,46.05
2022-09-04T11:05:18.889Z,44.73
2022-09-04T11:07:51.248Z,45.78
2022-09-04T11:10:23.419Z,45.97
2022-09-04T11:13:17.706Z,45.96
2022-09-04T11:15:47.936Z,46.00
2022-09-04T11:18:25.076Z,45.89
2022-09-04T11:21:31.025Z,46.13
2022-09-04T11:24:49.635Z,46.63
2022-09-04T11:27:33.383Z,46.76
2022-09-04T11:30:25.500Z,46.89
2022-09-04T11:33:02.936Z,46.48
2022-09-04T11:36:05.879Z,45.78
2022-09-04T11:38:49.495Z,45.74
2022-09-04T11:41:44.042Z,45.01
2022-09-04T11:44:28.588Z,45.65
2022-09-04T11:47:06.618Z,45.79
2022-09-04T11:50:07.664Z,45.64
2022-09-04T11:52:55.625Z,45.56
2022-09-04T11:55:52.852Z,46.20
2022-09-04T11:58:45.571Z,45.69
2022-09-04T12:01:41.634Z,44.98
2022-09-04T12:04:32.103Z,45.06
2022-09-04T12:07:42.714Z,46.02
2022-09-04T12:10:28.071Z,45.68
2022-09-04T12:13:18.191Z,45.48
2022-09-04T12:15:56.688Z,45.72
2022-09-04T12:18:41.635Z,45.93
2022-09-04T12:21:40.563Z,45.21
2022-09-04T12:24:34.667Z,45.17
2022-09-04T12:27:27.272Z,45.95
2022-09-04T12:30:23.722Z,44.26
2022-09-04T12:32:56.162Z,44.48
2022-09-04T12:35:50.540Z,44.77
2022-09-04T12:38:37.589Z,44.52
2022-09-04T12:41:20.484Z,44.67
2022-09-04T12:43:57.229Z,44.62
2022-09-04T12:46:37.617Z,44.86
2022-09-04T12:49:30.894Z,45.20
2022-09-04T12:52:07.905Z,45.22
2022-09-04T12:55:01.333Z,45.12
2022-09-04T12:57:33.811Z,44.83
2022-09-04T13:00:20.520Z,44.86
2022-09-04T13:03:05.647Z,45.44
2022-09-04T13:05:52.860Z,45.70
2022-09-04T13:08:31.971Z,44.76
2022-09-04T13:11:32.459Z,44.82
2022-09-04T13:14:34.423Z,44.80
2022-09-04T13:17:25.250Z,44.57
2022-09-04T13:20:05.993Z,44.34
2022-09-04T13:22:51.451Z,45.07
2022-09-04T13:25:53.208Z,45.26
2022-09-04T13:28:35.565Z,45.44
2022-09-04T13:31:05.468Z,44.62
2022-09-04T13:34:20.989Z,44.89
2022-09-04T13:37:06.278Z,44.52
2022-09-04T13:39:56.101Z,44.80
2022-09-04T13:42:44.055Z,44.95
2022-09-04T13:45:21.473Z,45.23
2022-09-04T13:47:56.939Z,45.55
2022-09-04T13:50:55.644Z,44.50
2022-09-04T13:53:51.299Z,44.11
2022-09-04T13:56:19.776Z,44.82
2022-09-04T13:58:52.223Z,44.67
2022-09-04T14:01:22.422Z,45.13
2022-09-04T14:03:51.798Z,44.14
2022-09-04T14:06:19.873Z,44.44
2022-09-04T14:08:55.599Z,44.72
2022-09-04T14:11:47.436Z,45.33
2022-09-04T14:14:48.625Z,45.34
2022-09-04T14:17:17.275Z,44.90
2022-09-04T14:19:52.970Z,44.46
2022-09-04T14:22:28.763Z,44.05
2022-09-04T14:25:18.343Z,44.15
2022-09-04T14:28:23.961Z,44.63
2022-09-04T14:31:00.987Z,45.35
2022-09-04T14:33:46.285Z,45.35
2022-09-04T14:36:16.063Z,45.64
2022-09-04T14:39:00.770Z,45.61
2022-09-04T14:41:41.806Z,45.49
2022-09-04T14:44:12.695Z,45.07
2022-09-04T14:46:55.732Z,44.86
2022-09-04T14:49:23.552Z,44.96
2022-09-04T14:51:52.453Z,44.89
2022-09-04T14:54:28.382Z,44.98
2022-09-04T14:56:57.236Z,44.60
2022-09-04T14:59:35.839Z,44.46
2022-09-04T15:02:12.211Z,44.93
2022-09-04T15:04:52.896Z,44.08
2022-09-04T15:07:42.490Z,43.82
2022-09-04T15:10:12.034Z,43.98
2022-09-04T15:12:41.364Z,43.39
2022-09-04T15:15:16.636Z,43.63
2022-09-04T15:17:51.392Z,43.32
2022-09-04T15:20:22.663Z,43.63
2022-09-04T15:23:01.265Z,43.78
2022-09-04T15:25:58.622Z,43.79
2022-09-04T15:28:38.425Z,43.84
2022-09-04T15:31:16.841Z,44.06
2022-09-04T15:33:44.400Z,43.79
2022-09-04T15:36:15.853Z,43.97
2022-09-04T15:38:47.328Z,44.30
2022-09-04T15:41:26.848Z,44.14
2022-09-04T15:43:58.318Z,43.81
2022-09-04T15:46:41.672Z,43.97
2022-09-04T15:49:38.748Z,43.85
2022-09-04T15:52:45.348Z,43.91
2022-09-04T15:55:36.299Z,44.13
2022-09-04T15:58:29.675Z,43.62
2022-09-04T16:01:06.230Z,44.22
2022-09-04T16:03:52.028Z,43.90
2022-09-04T16:06:30.206Z,44.54
2022-09-04T16:09:10.958Z,44.50
2022-09-04T16:11:41.986Z,44.55
2022-09-04T16:14:18.143Z,44.88
2022-09-04T16:16:58.139Z,45.14
2022-09-04T16:19:43.529Z,45.26
2022-09-04T16:22:42.192Z,44.86
2022-09-04T16:25:23.496Z,45.60
2022-09-04T16:28:15.699Z,45.20
2022-09-04T16:30:47.374Z,45.66
2022-09-04T16:33:33.961Z,45.76
2022-09-04T16:36:17.118Z,45.41
2022-09-04T16:38:52.321Z,46.02
2022-09-04T16:41:56.825Z,46.35
2022-09-04T16:44:44.284Z,45.99
2022-09-04T16:47:41.271Z,45.74
2022-09-04T16:50:24.941Z,45.55
2022-09-04T16:53:12.828Z,45.25
2022-09-04T16:55:44.740Z,45.38
2022-09-04T16:58:11.207Z,45.68
2022-09-04T17:01:09.069Z,45.78
2022-09-04T17:04:12.589Z,46.46
2022-09-04T17:06:42.842Z,46.29
2022-09-04T17:09:24.705Z,46.68
2022-09-04T17:11:55.804Z,47.04
2022-09-04T17:14:32.159Z,47.43
2022-09-04T17:17:30.654Z,47.36
2022-09-04T17:20:06.744Z,47.45
2022-09-04T17:28:56.216Z,47.61
2022-09-04T17:29:16.890Z,47.39
2022-09-04T17:29:19.621Z,47.58
2022-09-04T17:31:29.612Z,47.48
2022-09-04T17:40:41.824Z,47.19
2022-09-04T17:40:56.626Z,46.97
2022-09-04T17:42:27.046Z,47.14
2022-09-04T17:45:06.610Z,46.99
2022-09-04T17:47:43.218Z,46.97
2022-09-04T17:50:14.156Z,47.24
2022-09-04T17:53:02.877Z,46.95
2022-09-04T17:55:31.463Z,47.13
2022-09-04T17:58:09.249Z,46.92
2022-09-04T18:00:54.225Z,47.26
2022-09-04T18:04:19.691Z,47.44
2022-09-04T18:06:40.985Z,47.22
2022-09-04T18:09:32.622Z,47.45
2022-09-04T18:12:37.814Z,47.69
2022-09-04T18:15:33.203Z,47.57
2022-09-04T18:18:00.906Z,47.66
2022-09-04T18:20:37.870Z,47.58
2022-09-04T18:23:46.386Z,47.69
2022-09-04T18:26:23.416Z,47.69
2022-09-04T18:29:32.500Z,47.63
2022-09-04T18:37:10.756Z,47.59
2022-09-04T18:37:16.157Z,47.32
2022-09-04T18:37:55.546Z,47.37
2022-09-04T18:40:43.704Z,47.14
2022-09-04T18:50:20.300Z,47.13
2022-09-04T18:50:39.228Z,47.12
2022-09-04T18:50:46.232Z,46.86
2022-09-04T18:51:51.724Z,46.94
2022-09-04T18:54:24.773Z,46.91
2022-09-04T18:57:01.214Z,46.78
2022-09-04T18:59:36.555Z,46.54
2022-09-04T19:02:21.229Z,46.55
2022-09-04T19:05:00.397Z,46.61
2022-09-04T19:07:35.625Z,46.65
2022-09-04T19:10:25.175Z,46.58
2022-09-04T19:12:52.166Z,46.32
2022-09-04T19:15:36.590Z,46.39
2022-09-04T19:18:20.363Z,46.42
2022-09-04T19:21:14.677Z,46.48
2022-09-04T19:23:41.420Z,46.25
2022-09-04T19:26:41.446Z,46.28
2022-09-04T19:29:20.333Z,46.23
2022-09-04T19:31:57.326Z,46.34
2022-09-04T19:34:37.346Z,46.27
2022-09-04T19:38:58.917Z,47.80
2022-09-04T19:46:04.421Z,47.32
2022-09-04T19:46:05.352Z,47.63
2022-09-04T19:46:27.701Z,46.91
2022-09-04T19:49:59.761Z,46.97
2022-09-04T19:53:29.944Z,47.20
2022-09-04T19:55:24.968Z,47.13
2022-09-04T19:57:47.654Z,47.32
2022-09-04T20:00:35.654Z,46.81
2022-09-04T20:03:30.229Z,47.17
2022-09-04T20:06:21.532Z,47.21
2022-09-04T20:09:02.567Z,47.19
2022-09-04T20:11:39.456Z,47.32
2022-09-04T20:14:13.961Z,47.21
2022-09-04T20:16:57.240Z,46.98
2022-09-04T20:19:37.347Z,46.68
2022-09-04T20:22:06.816Z,46.59
2022-09-04T20:25:01.932Z,46.64
2022-09-04T20:28:16.910Z,46.73
2022-09-04T20:30:45.376Z,46.50
2022-09-04T20:33:19.369Z,46.59
2022-09-04T20:35:58.743Z,46.43
2022-09-04T20:38:40.979Z,46.60
2022-09-04T20:41:10.730Z,46.54
2022-09-04T20:44:14.724Z,46.71
2022-09-04T20:49:00.903Z,46.43
2022-09-04T20:52:54.576Z,46.57
2022-09-04T20:53:07.717Z,46.61
2022-09-04T20:55:59.568Z,46.68
2022-09-04T21:03:07.524Z,46.61
2022-09-04T21:03:20.359Z,46.40
2022-09-04T21:04:42.873Z,46.37
2022-09-04T21:07:31.133Z,46.43
2022-09-04T21:10:27.618Z,46.61
2022-09-04T21:13:16.515Z,46.63
2022-09-04T21:16:07.154Z,46.55
2022-09-04T21:18:41.663Z,46.68
2022-09-04T21:21:30.004Z,46.88
2022-09-04T21:24:22.132Z,46.64
2022-09-04T21:27:12.536Z,46.49
2022-09-04T21:29:48.442Z,46.57
2022-09-04T21:32:30.452Z,46.45
2022-09-04T21:35:18.047Z,46.64
2022-09-04T21:38:15.207Z,46.71
2022-09-04T21:40:52.689Z,46.72
2022-09-04T21:43:47.196Z,46.61
2022-09-04T21:46:31.391Z,46.71
2022-09-04T21:49:26.387Z,46.56
2022-09-04T21:52:03.728Z,46.60
2022-09-04T21:57:45.733Z,46.61
2022-09-04T22:02:28.426Z,46.77
2022-09-04T22:02:43.084Z,46.71
2022-09-04T22:03:31.807Z,46.62
2022-09-04T22:07:53.572Z,46.68
2022-09-04T22:13:33.245Z,46.66
2022-09-04T22:13:42.497Z,46.71
2022-09-04T22:16:16.436Z,46.86
2022-09-04T22:19:22.819Z,46.77
2022-09-04T22:22:14.953Z,47.01
2022-09-04T22:25:04.263Z,46.84
2022-09-04T22:28:07.315Z,46.73
2022-09-04T22:30:53.934Z,46.72
2022-09-04T22:34:15.110Z,46.80
2022-09-04T22:37:17.176Z,46.75
2022-09-04T22:39:50.481Z,46.73
2022-09-04T22:42:33.504Z,46.58
2022-09-04T22:45:11.633Z,46.59
2022-09-04T22:47:55.701Z,46.68
2022-09-04T22:50:22.026Z,46.84
2022-09-04T22:53:26.911Z,46.92
2022-09-04T22:56:23.117Z,46.55
2022-09-04T22:58:51.649Z,46.98
2022-09-04T23:01:30.202Z,46.89
2022-09-04T23:04:38.015Z,47.02
2022-09-04T23:12:06.429Z,46.85
2022-09-04T23:13:48.739Z,46.90
2022-09-04T23:14:11.059Z,46.92
2022-09-04T23:16:53.439Z,46.73
2022-09-04T23:24:15.189Z,46.98
2022-09-04T23:26:44.303Z,47.04
2022-09-04T23:26:44.826Z,46.97
2022-09-04T23:28:32.862Z,47.00
2022-09-04T23:31:37.552Z,46.92
2022-09-04T23:34:26.033Z,47.08
2022-09-04T23:37:02.249Z,46.92
2022-09-04T23:39:51.385Z,46.78
2022-09-04T23:42:58.475Z,46.83
2022-09-04T23:45:53.897Z,47.04
2022-09-04T23:48:31.667Z,47.05
2022-09-04T23:51:19.985Z,46.94
2022-09-04T23:54:10.403Z,46.82
2022-09-04T23:56:52.572Z,47.09
2022-09-04T23:59:37.328Z,46.91
